createdAt,value
2023-01-30T00:01:25.713Z,15.00
2023-01-30T00:03:54.627Z,15.67
2023-01-30T00:06:23.500Z,14.30
2023-01-30T00:08:52.315Z,13.90
2023-01-30T00:11:23.406Z,15.47
2023-01-30T00:13:52.761Z,14.83
2023-01-30T00:16:21.602Z,16.67
2023-01-30T00:18:50.952Z,16.33
2023-01-30T00:21:19.976Z,14.73
2023-01-30T00:23:48.870Z,15.53
2023-01-30T00:26:17.884Z,15.13
2023-01-30T00:28:48.129Z,14.00
2023-01-30T00:31:16.950Z,17.50
2023-01-30T00:33:45.782Z,12.90
2023-01-30T00:36:14.562Z,16.50
2023-01-30T00:38:43.349Z,14.37
2023-01-30T00:41:14.084Z,13.80
2023-01-30T00:44:00.477Z,13.43
2023-01-30T00:46:49.871Z,14.47
2023-01-30T00:49:19.111Z,15.27
2023-01-30T00:51:47.886Z,15.57
2023-01-30T00:54:16.747Z,16.20
2023-01-30T00:56:45.499Z,14.37
2023-01-30T00:59:14.229Z,12.40
2023-01-30T01:01:44.531Z,15.23
2023-01-30T01:04:13.803Z,15.70
2023-01-30T01:06:42.651Z,15.40
2023-01-30T01:09:11.775Z,17.83
2023-01-30T01:11:40.521Z,16.90
2023-01-30T01:14:09.282Z,14.97
2023-01-30T01:16:38.356Z,15.63
2023-01-30T01:19:08.611Z,14.23
2023-01-30T01:21:37.497Z,14.00
2023-01-30T01:24:06.627Z,17.23
2023-01-30T01:26:35.661Z,18.40
2023-01-30T01:29:04.428Z,15.83
2023-01-30T01:31:33.325Z,15.80
2023-01-30T01:34:02.117Z,14.93
2023-01-30T01:39:21.019Z,12.20
2023-01-30T01:41:48.624Z,16.90
2023-01-30T01:44:17.663Z,13.60
2023-01-30T01:46:51.709Z,15.70
2023-01-30T01:49:25.208Z,15.17
2023-01-30T01:51:59.206Z,15.53
2023-01-30T01:54:35.289Z,15.73
2023-01-30T01:57:06.693Z,15.67
2023-01-30T01:59:39.478Z,15.30
2023-01-30T02:02:12.402Z,16.27
2023-01-30T02:05:03.276Z,17.13
2023-01-30T02:07:39.562Z,15.47
2023-01-30T02:10:10.167Z,18.33
2023-01-30T02:12:40.715Z,16.20
2023-01-30T02:15:10.034Z,15.40
2023-01-30T02:17:38.833Z,15.73
2023-01-30T02:20:18.003Z,14.03
2023-01-30T02:23:28.151Z,16.23
2023-01-30T02:26:29.978Z,15.00
2023-01-30T02:29:25.597Z,16.80
2023-01-30T02:32:01.125Z,15.20
2023-01-30T02:34:46.475Z,15.77
2023-01-30T02:37:28.328Z,14.07
2023-01-30T02:40:17.542Z,14.60
2023-01-30T02:42:52.793Z,15.23
2023-01-30T02:45:26.719Z,16.83
2023-01-30T02:48:02.848Z,16.50
2023-01-30T02:50:36.413Z,15.37
2023-01-30T02:53:07.458Z,14.03
2023-01-30T02:55:36.681Z,15.53
2023-01-30T02:58:06.653Z,14.90
2023-01-30T03:01:00.242Z,17.03
2023-01-30T03:03:44.945Z,13.80
2023-01-30T03:06:39.932Z,15.17
2023-01-30T03:09:17.885Z,16.90
2023-01-30T03:11:51.230Z,12.37
2023-01-30T03:14:26.159Z,14.07
2023-01-30T03:16:57.899Z,14.63
2023-01-30T03:19:29.708Z,15.27
2023-01-30T03:21:58.426Z,14.73
2023-01-30T03:24:27.810Z,14.27
2023-01-30T03:27:00.127Z,14.07
2023-01-30T03:29:28.922Z,15.20
2023-01-30T03:31:57.944Z,13.00
2023-01-30T03:34:28.157Z,15.40
2023-01-30T03:36:56.975Z,16.10
2023-01-30T03:39:26.545Z,13.43
2023-01-30T03:41:55.757Z,14.00
2023-01-30T03:44:24.525Z,13.93
2023-01-30T03:46:53.273Z,14.20
2023-01-30T03:49:22.041Z,13.60
2023-01-30T03:51:52.327Z,14.33
2023-01-30T03:54:21.484Z,14.27
2023-01-30T03:56:50.233Z,13.50
2023-01-30T03:59:18.938Z,13.40
2023-01-30T04:01:47.716Z,12.90
2023-01-30T04:04:16.420Z,11.60
2023-01-30T04:06:45.114Z,13.77
2023-01-30T04:09:15.285Z,11.40
2023-01-30T04:11:44.065Z,11.00
2023-01-30T04:14:12.771Z,11.17
2023-01-30T04:16:42.062Z,13.90
2023-01-30T04:19:10.812Z,11.67
2023-01-30T04:21:39.604Z,12.43
2023-01-30T04:24:08.758Z,13.07
2023-01-30T04:26:38.986Z,13.33
2023-01-30T04:29:08.006Z,11.23
2023-01-30T04:31:36.731Z,12.10
2023-01-30T04:34:05.693Z,11.83
2023-01-30T04:36:34.419Z,12.03
2023-01-30T04:39:03.160Z,12.43
2023-01-30T04:41:31.881Z,10.00
2023-01-30T04:44:02.066Z,12.60
2023-01-30T04:46:30.819Z,13.17
2023-01-30T04:48:59.575Z,12.73
2023-01-30T04:51:28.372Z,11.73
2023-01-30T04:53:57.084Z,13.90
2023-01-30T04:56:25.873Z,13.63
2023-01-30T04:58:54.629Z,14.00
2023-01-30T05:01:26.966Z,12.23
2023-01-30T05:03:56.067Z,13.20
2023-01-30T05:06:25.175Z,12.00
2023-01-30T05:08:55.166Z,11.93
2023-01-30T05:11:24.714Z,13.23
2023-01-30T05:13:53.698Z,14.90
2023-01-30T05:16:24.620Z,14.27
2023-01-30T05:18:53.551Z,14.20
2023-01-30T05:21:26.108Z,14.43
2023-01-30T05:23:55.066Z,13.47
2023-01-30T05:26:24.608Z,14.43
2023-01-30T05:28:54.595Z,14.10
2023-01-30T05:31:25.124Z,13.03
2023-01-30T05:33:54.498Z,13.00
2023-01-30T05:36:24.891Z,12.70
2023-01-30T05:38:53.690Z,13.40
2023-01-30T05:41:22.441Z,13.77
2023-01-30T05:43:51.915Z,12.20
2023-01-30T05:46:21.133Z,16.63
2023-01-30T05:48:51.332Z,13.77
2023-01-30T05:51:21.998Z,13.03
2023-01-30T05:53:51.272Z,13.40
2023-01-30T05:56:21.374Z,12.93
2023-01-30T05:58:54.275Z,14.07
2023-01-30T06:01:24.141Z,11.87
2023-01-30T06:03:55.114Z,13.60
2023-01-30T06:06:24.717Z,13.83
2023-01-30T06:08:55.653Z,14.17
2023-01-30T06:11:25.296Z,14.13
2023-01-30T06:13:54.060Z,13.20
2023-01-30T06:16:23.101Z,14.60
2023-01-30T06:18:53.329Z,14.10
2023-01-30T06:21:22.028Z,15.73
2023-01-30T06:23:50.890Z,14.73
2023-01-30T06:26:19.560Z,13.43
2023-01-30T06:28:48.587Z,14.10
2023-01-30T06:31:18.728Z,12.70
2023-01-30T06:33:49.139Z,14.10
2023-01-30T06:36:19.230Z,14.50
2023-01-30T06:38:48.915Z,13.67
2023-01-30T06:41:17.577Z,13.07
2023-01-30T06:43:46.209Z,12.47
2023-01-30T06:46:14.969Z,13.83
2023-01-30T06:48:43.756Z,14.30
2023-01-30T06:51:12.469Z,13.77
2023-01-30T06:53:42.596Z,14.37
2023-01-30T06:56:11.502Z,14.53
2023-01-30T06:58:40.191Z,14.60
2023-01-30T07:01:08.906Z,12.27
2023-01-30T07:03:37.484Z,14.20
2023-01-30T07:06:06.393Z,12.40
2023-01-30T07:08:35.095Z,16.40
2023-01-30T07:11:06.612Z,14.40
2023-01-30T07:13:35.277Z,13.80
2023-01-30T07:16:03.954Z,13.50
2023-01-30T07:18:32.656Z,15.63
2023-01-30T07:21:01.332Z,14.80
2023-01-30T07:23:30.003Z,14.73
2023-01-30T07:25:58.860Z,15.60
2023-01-30T07:28:29.060Z,14.70
2023-01-30T07:31:01.465Z,16.20
2023-01-30T07:33:30.307Z,16.30
2023-01-30T07:35:59.037Z,15.07
2023-01-30T07:38:28.578Z,16.73
2023-01-30T07:40:59.681Z,19.67
2023-01-30T07:43:29.905Z,17.20
2023-01-30T07:45:58.662Z,18.17
2023-01-30T07:48:27.587Z,19.07
2023-01-30T07:50:58.092Z,19.53
2023-01-30T07:53:27.014Z,15.93
2023-01-30T07:55:55.770Z,20.27
2023-01-30T07:58:24.432Z,18.00
2023-01-30T08:00:57.455Z,18.60
2023-01-30T08:03:26.471Z,20.90
2023-01-30T08:05:55.585Z,19.77
2023-01-30T08:08:25.117Z,19.13
2023-01-30T08:10:54.029Z,19.43
2023-01-30T08:13:22.870Z,19.87
2023-01-30T08:15:51.656Z,18.40
2023-01-30T08:18:22.117Z,17.67
2023-01-30T08:20:50.947Z,20.30
2023-01-30T08:23:19.796Z,21.20
2023-01-30T08:25:49.082Z,17.10
2023-01-30T08:28:17.720Z,19.33
2023-01-30T08:30:49.438Z,18.80
2023-01-30T08:33:18.607Z,17.87
2023-01-30T08:35:50.280Z,17.10
2023-01-30T08:38:20.038Z,20.37
2023-01-30T08:40:48.983Z,15.83
2023-01-30T08:43:18.054Z,16.07
2023-01-30T08:45:47.136Z,19.23
2023-01-30T08:48:18.357Z,17.07
2023-01-30T08:50:49.031Z,18.47
2023-01-30T08:53:18.257Z,20.80
2023-01-30T08:55:47.242Z,18.87
2023-01-30T08:58:16.870Z,18.60
2023-01-30T09:00:47.866Z,16.67
2023-01-30T09:03:19.121Z,18.53
2023-01-30T09:05:49.507Z,18.40
2023-01-30T09:08:18.328Z,18.17
2023-01-30T09:10:47.900Z,19.20
2023-01-30T09:13:18.090Z,19.83
2023-01-30T09:15:47.015Z,18.87
2023-01-30T09:18:16.878Z,19.27
2023-01-30T09:20:46.211Z,19.80
2023-01-30T09:23:16.785Z,17.37
2023-01-30T09:25:47.079Z,20.20
2023-01-30T09:28:16.027Z,18.77
2023-01-30T09:30:45.718Z,17.47
2023-01-30T09:33:16.668Z,17.17
2023-01-30T09:35:48.259Z,18.20
2023-01-30T09:38:19.942Z,17.10
2023-01-30T09:40:55.324Z,17.13
2023-01-30T09:43:41.547Z,17.87
2023-01-30T09:46:21.535Z,18.87
2023-01-30T09:49:00.835Z,18.27
2023-01-30T09:51:44.360Z,17.77
2023-01-30T09:54:24.644Z,16.87
2023-01-30T09:57:00.136Z,15.10
2023-01-30T09:59:36.173Z,15.57
2023-01-30T10:02:33.213Z,17.17
2023-01-30T10:05:03.674Z,17.03
2023-01-30T10:07:44.728Z,15.60
2023-01-30T10:10:23.846Z,15.77
2023-01-30T10:13:03.019Z,17.87
2023-01-30T10:15:42.782Z,16.50
2023-01-30T10:18:29.668Z,20.53
2023-01-30T10:21:11.464Z,18.80
2023-01-30T10:24:02.828Z,19.17
2023-01-30T10:26:33.284Z,18.53
2023-01-30T10:29:08.002Z,20.50
2023-01-30T10:31:43.671Z,21.03
2023-01-30T10:34:16.787Z,18.50
2023-01-30T10:36:53.380Z,19.17
2023-01-30T10:39:33.479Z,21.40
2023-01-30T10:42:11.954Z,19.10
2023-01-30T10:44:42.983Z,20.53
2023-01-30T10:47:47.669Z,19.20
2023-01-30T10:50:23.239Z,22.30
2023-01-30T10:53:00.609Z,21.10
2023-01-30T10:55:38.108Z,23.87
2023-01-30T10:58:18.022Z,24.03
2023-01-30T11:00:53.900Z,23.20
2023-01-30T11:03:37.010Z,22.27
2023-01-30T11:06:16.586Z,23.80
2023-01-30T11:08:55.620Z,24.00
2023-01-30T11:11:32.755Z,19.37
2023-01-30T11:14:08.633Z,23.03
2023-01-30T11:16:50.046Z,22.37
2023-01-30T11:19:22.641Z,20.53
2023-01-30T11:21:56.506Z,22.33
2023-01-30T11:24:31.036Z,20.57
2023-01-30T11:27:12.677Z,18.83
2023-01-30T11:29:43.254Z,19.47
2023-01-30T11:32:17.117Z,18.70
2023-01-30T11:34:46.496Z,19.60
2023-01-30T11:37:24.665Z,18.57
2023-01-30T11:39:54.810Z,17.73
2023-01-30T11:42:30.527Z,16.20
2023-01-30T11:45:16.738Z,15.50
2023-01-30T11:47:57.723Z,14.50
2023-01-30T11:50:36.406Z,13.57
2023-01-30T11:53:22.070Z,13.67
2023-01-30T11:56:03.044Z,12.53
2023-01-30T11:58:37.585Z,10.67
2023-01-30T12:01:11.489Z,10.60
2023-01-30T12:03:51.433Z,11.17
2023-01-30T12:06:24.999Z,12.03
2023-01-30T12:08:56.445Z,10.67
2023-01-30T12:11:48.009Z,10.60
2023-01-30T12:14:26.826Z,10.33
2023-01-30T12:17:11.180Z,9.30
2023-01-30T12:19:56.007Z,8.03
2023-01-30T12:22:33.176Z,8.33
2023-01-30T12:25:02.778Z,6.50
2023-01-30T12:27:47.281Z,6.97
2023-01-30T12:30:26.618Z,6.90
2023-01-30T12:35:46.732Z,5.57
2023-01-30T12:38:28.067Z,5.80
2023-01-30T12:41:05.713Z,6.07
2023-01-30T12:44:04.619Z,6.50
2023-01-30T12:46:48.923Z,5.70
2023-01-30T12:49:36.854Z,5.83
2023-01-30T12:52:21.845Z,5.53
2023-01-30T12:55:00.142Z,5.77
2023-01-30T12:57:38.722Z,4.77
2023-01-30T13:00:26.974Z,6.20
2023-01-30T13:03:11.383Z,4.93
2023-01-30T13:05:46.923Z,5.07
2023-01-30T13:08:28.770Z,5.23
2023-01-30T13:11:06.715Z,5.00
2023-01-30T13:13:43.477Z,4.23
2023-01-30T13:16:23.145Z,5.13
2023-01-30T13:18:57.321Z,5.00
2023-01-30T13:21:39.740Z,4.90
2023-01-30T13:24:23.456Z,5.10
2023-01-30T13:26:55.538Z,5.10
2023-01-30T13:29:33.479Z,5.30
2023-01-30T13:32:05.954Z,4.57
2023-01-30T13:34:38.935Z,4.33
2023-01-30T13:37:15.654Z,4.10
2023-01-30T13:39:49.417Z,4.20
2023-01-30T13:42:30.573Z,3.80
2023-01-30T13:45:01.113Z,4.53
2023-01-30T13:47:48.967Z,3.87
2023-01-30T13:50:32.113Z,3.63
2023-01-30T13:53:08.626Z,4.10
2023-01-30T13:55:45.458Z,3.50
2023-01-30T13:58:29.104Z,2.87
2023-01-30T14:00:58.940Z,3.43
2023-01-30T14:03:33.132Z,3.57
2023-01-30T14:06:14.645Z,4.50
2023-01-30T14:08:59.414Z,11.33
2023-01-30T14:11:38.000Z,4.80
2023-01-30T14:14:24.120Z,3.80
2023-01-30T14:16:55.239Z,6.83
2023-01-30T14:19:46.738Z,3.97
2023-01-30T14:22:23.622Z,3.93
2023-01-30T14:25:29.619Z,4.30
2023-01-30T14:28:34.645Z,4.30
2023-01-30T14:31:05.513Z,4.30
2023-01-30T14:33:37.132Z,4.40
2023-01-30T14:36:38.388Z,4.10
2023-01-30T14:39:41.420Z,5.07
2023-01-30T14:42:27.235Z,3.93
2023-01-30T14:45:06.617Z,3.80
2023-01-30T14:47:47.155Z,3.50
2023-01-30T14:50:23.645Z,3.47
2023-01-30T14:52:58.124Z,3.40
2023-01-30T14:55:31.069Z,4.23
2023-01-30T14:58:03.215Z,3.10
2023-01-30T15:00:37.295Z,3.00
2023-01-30T15:03:18.040Z,4.13
2023-01-30T15:05:49.510Z,3.10
2023-01-30T15:08:24.501Z,4.00
2023-01-30T15:11:11.419Z,4.13
2023-01-30T15:13:56.431Z,3.70
2023-01-30T15:17:10.278Z,4.17
2023-01-30T15:20:07.371Z,3.00
2023-01-30T15:22:46.792Z,2.43
2023-01-30T15:25:32.347Z,3.13
2023-01-30T15:28:17.000Z,3.40
2023-01-30T15:30:58.637Z,3.50
2023-01-30T15:33:32.463Z,3.00
2023-01-30T15:36:02.025Z,3.03
2023-01-30T15:38:32.929Z,2.70
2023-01-30T15:41:04.379Z,2.60
2023-01-30T15:43:53.976Z,3.00
2023-01-30T15:46:30.264Z,3.37
2023-01-30T15:49:12.722Z,3.10
2023-01-30T15:51:41.822Z,3.20
2023-01-30T15:54:13.364Z,2.80
2023-01-30T15:56:42.551Z,3.70
2023-01-30T15:59:27.671Z,3.30
2023-01-30T16:02:05.824Z,3.37
2023-01-30T16:04:36.409Z,3.50
2023-01-30T16:07:17.280Z,3.50
2023-01-30T16:10:12.891Z,3.40
2023-01-30T16:12:42.590Z,3.63
2023-01-30T16:15:22.328Z,3.90
2023-01-30T16:18:05.404Z,3.30
2023-01-30T16:21:00.198Z,3.60
2023-01-30T16:23:35.459Z,3.83
2023-01-30T16:26:07.480Z,2.97
2023-01-30T16:28:38.775Z,3.37
2023-01-30T16:31:09.971Z,5.30
2023-01-30T16:33:39.517Z,3.17
2023-01-30T16:36:35.432Z,3.40
2023-01-30T16:39:06.083Z,2.93
2023-01-30T16:41:39.578Z,3.00
2023-01-30T16:44:17.786Z,3.20
2023-01-30T16:46:57.689Z,3.10
2023-01-30T16:49:40.139Z,4.23
2023-01-30T16:52:21.322Z,3.20
2023-01-30T16:54:52.947Z,3.57
2023-01-30T16:57:36.600Z,3.33
2023-01-30T17:00:11.160Z,3.37
2023-01-30T17:02:44.185Z,4.03
2023-01-30T17:05:22.353Z,3.47
2023-01-30T17:07:54.398Z,3.67
2023-01-30T17:10:51.766Z,4.47
2023-01-30T17:13:35.538Z,3.17
2023-01-30T17:16:33.427Z,4.03
2023-01-30T17:19:03.014Z,2.93
2023-01-30T17:21:35.089Z,3.63
2023-01-30T17:24:08.369Z,3.23
2023-01-30T17:26:40.912Z,3.63
2023-01-30T17:29:23.680Z,3.03
2023-01-30T17:32:07.599Z,3.90
2023-01-30T17:34:41.699Z,3.17
2023-01-30T17:37:17.541Z,2.50
2023-01-30T17:39:50.048Z,3.53
2023-01-30T17:42:35.266Z,2.87
2023-01-30T17:45:06.821Z,4.30
2023-01-30T17:47:46.029Z,4.33
2023-01-30T17:50:24.497Z,4.60
2023-01-30T17:52:54.222Z,3.57
2023-01-30T17:55:27.056Z,4.43
2023-01-30T18:01:07.999Z,2.30
2023-01-30T18:04:01.454Z,3.90
2023-01-30T18:06:41.137Z,2.67
2023-01-30T18:09:26.533Z,3.40
2023-01-30T18:12:02.874Z,5.10
2023-01-30T18:14:33.560Z,3.13
2023-01-30T18:17:05.113Z,3.33
2023-01-30T18:19:36.471Z,3.13
2023-01-30T18:22:08.717Z,3.07
2023-01-30T18:24:39.208Z,3.33
2023-01-30T18:27:15.741Z,3.10
2023-01-30T18:29:47.211Z,3.00
2023-01-30T18:32:18.633Z,3.40
2023-01-30T18:34:51.917Z,2.60
2023-01-30T18:37:23.377Z,3.10
2023-01-30T18:39:55.280Z,3.63
2023-01-30T18:42:29.464Z,5.00
2023-01-30T18:45:00.911Z,3.70
2023-01-30T18:47:33.308Z,4.83
2023-01-30T18:50:05.120Z,3.53
2023-01-30T18:52:40.456Z,4.57
2023-01-30T18:55:11.351Z,3.50
2023-01-30T18:57:49.634Z,4.40
2023-01-30T19:00:27.239Z,3.70
2023-01-30T19:03:00.299Z,4.87
2023-01-30T19:05:33.176Z,4.13
2023-01-30T19:08:11.873Z,4.23
2023-01-30T19:10:44.256Z,3.90
2023-01-30T19:13:35.808Z,4.40
2023-01-30T19:16:08.446Z,4.20
2023-01-30T19:18:40.173Z,4.10
2023-01-30T19:21:21.493Z,4.00
2023-01-30T19:23:56.198Z,3.57
2023-01-30T19:26:33.637Z,4.90
2023-01-30T19:29:12.753Z,6.03
2023-01-30T19:31:48.100Z,3.20
2023-01-30T19:34:25.021Z,4.50
2023-01-30T19:36:55.029Z,4.10
2023-01-30T19:39:30.673Z,6.80
2023-01-30T19:42:01.138Z,4.50
2023-01-30T19:44:36.533Z,5.80
2023-01-30T19:47:08.723Z,6.60
2023-01-30T19:49:39.685Z,3.90
2023-01-30T19:52:15.319Z,4.40
2023-01-30T19:54:47.537Z,3.73
2023-01-30T19:57:19.471Z,3.97
2023-01-30T19:59:53.193Z,4.20
2023-01-30T20:02:25.062Z,4.10
2023-01-30T20:04:56.113Z,3.77
2023-01-30T20:07:31.383Z,4.27
2023-01-30T20:10:04.228Z,2.93
2023-01-30T20:12:36.206Z,3.03
2023-01-30T20:15:13.671Z,2.90
2023-01-30T20:17:44.579Z,3.30
2023-01-30T20:20:14.785Z,3.67
2023-01-30T20:22:49.907Z,4.13
2023-01-30T20:25:20.263Z,4.20
2023-01-30T20:27:50.197Z,4.33
2023-01-30T20:30:24.355Z,4.33
2023-01-30T20:33:02.693Z,4.90
2023-01-30T20:35:37.478Z,4.47
2023-01-30T20:38:08.824Z,4.50
2023-01-30T20:40:40.494Z,4.40
2023-01-30T20:43:10.772Z,5.03
2023-01-30T20:45:46.149Z,4.37
2023-01-30T20:48:19.968Z,4.30
2023-01-30T20:50:53.107Z,4.30
2023-01-30T20:53:23.859Z,4.03
2023-01-30T20:55:53.622Z,6.97
2023-01-30T20:58:24.213Z,4.90
2023-01-30T21:00:55.858Z,5.33
2023-01-30T21:03:26.704Z,6.03
2023-01-30T21:05:59.851Z,5.07
2023-01-30T21:08:33.594Z,4.53
2023-01-30T21:11:10.146Z,6.20
2023-01-30T21:16:37.066Z,4.73
2023-01-30T21:19:09.740Z,4.20
2023-01-30T21:21:44.229Z,4.30
2023-01-30T21:24:16.181Z,4.37
2023-01-30T21:26:50.223Z,4.67
2023-01-30T21:29:22.654Z,3.53
2023-01-30T21:31:54.577Z,3.70
2023-01-30T21:34:27.789Z,3.07
2023-01-30T21:37:13.943Z,3.57
2023-01-30T21:40:15.880Z,2.97
2023-01-30T21:43:02.068Z,3.57
2023-01-30T21:45:31.186Z,3.07
2023-01-30T21:48:03.012Z,3.00
2023-01-30T21:50:32.325Z,3.23
2023-01-30T21:53:02.102Z,3.77
2023-01-30T21:55:31.233Z,3.13
2023-01-30T21:58:00.771Z,3.20
2023-01-30T22:00:29.810Z,3.43
2023-01-30T22:02:58.576Z,2.67
2023-01-30T22:05:36.734Z,2.90
2023-01-30T22:08:07.163Z,2.27
2023-01-30T22:10:36.347Z,2.83
2023-01-30T22:13:05.157Z,2.90
2023-01-30T22:15:34.747Z,2.23
2023-01-30T22:18:04.305Z,2.93
2023-01-30T22:20:34.543Z,1.97
2023-01-30T22:23:03.383Z,3.50
2023-01-30T22:25:32.234Z,3.67
2023-01-30T22:28:01.089Z,3.20
2023-01-30T22:30:29.906Z,2.60
2023-01-30T22:32:58.825Z,3.57
2023-01-30T22:35:27.691Z,2.33
2023-01-30T22:37:58.013Z,2.90
2023-01-30T22:40:26.787Z,2.83
2023-01-30T22:42:55.609Z,2.80
2023-01-30T22:45:24.484Z,3.87
2023-01-30T22:47:53.206Z,2.60
2023-01-30T22:50:22.075Z,3.43
2023-01-30T22:52:50.826Z,2.20
2023-01-30T22:55:21.309Z,1.90
2023-01-30T22:57:50.401Z,2.77
2023-01-30T23:00:19.774Z,1.83
2023-01-30T23:02:48.543Z,2.63
2023-01-30T23:05:17.879Z,2.53
2023-01-30T23:07:47.068Z,2.10
2023-01-30T23:10:15.856Z,2.70
2023-01-30T23:13:03.451Z,4.10
2023-01-30T23:15:35.704Z,3.20
2023-01-30T23:18:21.879Z,2.70
2023-01-30T23:20:50.623Z,3.10
2023-01-30T23:23:19.385Z,2.30
2023-01-30T23:25:48.187Z,3.73
2023-01-30T23:28:18.410Z,3.50
2023-01-30T23:30:47.158Z,3.20
2023-01-30T23:33:15.937Z,3.60
2023-01-30T23:35:45.141Z,2.90
2023-01-30T23:38:19.083Z,3.77
2023-01-30T23:40:49.311Z,3.40
2023-01-30T23:43:20.328Z,2.83
2023-01-30T23:45:49.193Z,3.67
2023-01-30T23:48:18.020Z,3.30
2023-01-30T23:50:46.840Z,3.73
2023-01-30T23:53:15.659Z,3.23
2023-01-30T23:55:52.685Z,2.73
2023-01-30T23:58:23.442Z,3.10
